Time;durP1;ratioP1;P1;durP2;ratioP2;P2;SDS_P1;SDS_P2;PMS_P1;PMS_P2;Temp;Humidity;BMP_temperature;BMP_pressure;BME280_temperature;BME280_humidity;BME280_pressure;Samples;Min_cycle;Max_cycle;Signal;HPM_P1;HPM_P2
2021/03/31 00:02:14;;;;;;;57.97;23.23;;;19.10;31.00;;;;;;5075193;28;20047;-66
2021/03/31 00:04:41;;;;;;;56.13;22.65;;;19.20;30.60;;;;;;5073858;28;20054;-66
2021/03/31 00:07:10;;;;;;;52.28;21.80;;;19.10;30.60;;;;;;5074518;28;20048;-66
2021/03/31 00:09:38;;;;;;;57.60;22.67;;;19.10;30.60;;;;;;5074592;28;20395;-67
2021/03/31 00:12:07;;;;;;;56.05;22.73;;;19.20;30.80;;;;;;5056722;28;20052;-66
2021/03/31 00:14:35;;;;;;;48.15;21.02;;;19.10;31.10;;;;;;5074024;28;20057;-66
2021/03/31 00:17:03;;;;;;;53.53;20.88;;;19.10;30.70;;;;;;5074482;28;20040;-67
2021/03/31 00:19:30;;;;;;;52.40;22.55;;;19.00;30.70;;;;;;5056552;28;20054;-63
2021/03/31 00:21:57;;;;;;;53.75;22.40;;;19.10;31.20;;;;;;5056441;28;20388;-63
2021/03/31 00:24:24;;;;;;;55.67;21.08;;;19.00;30.60;;;;;;5056691;28;20048;-65
2021/03/31 00:26:51;;;;;;;58.17;22.42;;;18.90;30.80;;;;;;5074497;28;20040;-65
2021/03/31 00:29:18;;;;;;;52.42;21.52;;;19.00;31.00;;;;;;5074008;28;20056;-66
2021/03/31 00:31:44;;;;;;;54.13;22.38;;;19.90;31.90;;;;;;5074456;28;20449;-65
2021/03/31 00:34:11;;;;;;;53.55;21.30;;;18.90;30.50;;;;;;5074291;28;20044;-66
2021/03/31 00:36:37;;;;;;;56.83;22.27;;;18.40;30.60;;;;;;5080363;28;20494;-68
2021/03/31 00:39:06;;;;;;;51.38;21.52;;;18.70;31.00;;;;;;5094314;28;20052;-68
2021/03/31 00:41:34;;;;;;;51.65;21.98;;;18.70;31.00;;;;;;5094084;28;20044;-66
2021/03/31 00:44:02;;;;;;;51.72;22.67;;;18.80;30.90;;;;;;5093622;28;20040;-67
2021/03/31 00:46:30;;;;;;;56.60;22.58;;;18.90;31.00;;;;;;5094345;28;20078;-66
2021/03/31 00:48:56;;;;;;;;;;;18.70;30.70;;;;;;5094511;28;20059;-66
2021/03/31 00:51:23;;;;;;;;;;;18.80;31.10;;;;;;5094699;28;19920;-64
2021/03/31 00:53:50;;;;;;;54.08;22.33;;;18.80;30.90;;;;;;5076014;28;19927;-68
2021/03/31 00:56:16;;;;;;;;;;;18.70;30.90;;;;;;5094331;28;20440;-67
2021/03/31 00:58:43;;;;;;;;;;;18.80;31.60;;;;;;5093689;28;19973;-66
2021/03/31 01:01:10;;;;;;;;;;;18.60;31.10;;;;;;5094340;28;19939;-66
2021/03/31 01:03:37;;;;;;;54.65;20.80;;;18.70;31.90;;;;;;5093902;28;20317;-65
2021/03/31 01:06:04;;;;;;;49.63;20.33;;;18.60;31.10;;;;;;5092507;28;20048;-66
2021/03/31 01:08:32;;;;;;;49.08;21.83;;;18.50;31.30;;;;;;5075789;28;20036;-67
2021/03/31 01:11:00;;;;;;;;;;;18.50;31.40;;;;;;5094209;28;20471;-67
2021/03/31 01:13:31;;;;;;;51.65;20.73;;;18.50;31.50;;;;;;5092935;28;19924;-66
2021/03/31 01:16:27;;;;;;;50.55;21.95;;;18.50;31.90;;;;;;5093730;28;20056;-64
2021/03/31 01:19:05;;;;;;;57.67;21.30;;;18.30;31.70;;;;;;5070217;28;20032;-66
2021/03/31 01:22:15;;;;;;;47.38;21.13;;;18.30;32.10;;;;;;5075694;28;20413;-65
2021/03/31 01:25:11;;;;;;;53.22;21.35;;;18.20;32.10;;;;;;5093480;28;20470;-63
2021/03/31 01:28:27;;;;;;;52.03;21.23;;;18.20;32.50;;;;;;5092924;28;20051;-66
2021/03/31 01:31:03;;;;;;;48.38;21.85;;;18.20;32.70;;;;;;5071755;28;20044;-65
2021/03/31 01:33:42;;;;;;;52.78;21.75;;;18.10;32.70;;;;;;5093394;28;20490;-65
2021/03/31 01:36:12;;;;;;;57.58;22.92;;;;;;;;;;5093367;28;20090;-67
2021/03/31 01:38:42;;;;;;;50.80;22.67;;;18.10;32.90;;;;;;5093226;28;20044;-67
2021/03/31 01:41:12;;;;;;;49.40;21.40;;;18.00;32.80;;;;;;5093053;28;20050;-66
2021/03/31 01:43:39;;;;;;;51.03;22.45;;;18.00;32.70;;;;;;5092615;28;20052;-66
2021/03/31 01:46:06;;;;;;;;;;;17.90;32.50;;;;;;5093481;28;20036;-66
2021/03/31 01:48:34;;;;;;;50.90;21.92;;;17.90;33.60;;;;;;5093117;28;19920;-67
2021/03/31 01:51:07;;;;;;;51.05;21.35;;;17.80;33.90;;;;;;5093064;28;20509;-65
2021/03/31 01:53:35;;;;;;;52.03;21.85;;;17.70;34.10;;;;;;5080078;28;20066;-65
2021/03/31 01:56:02;;;;;;;50.83;22.00;;;17.60;34.20;;;;;;5091428;28;20115;-66
2021/03/31 01:58:31;;;;;;;50.65;22.05;;;17.50;33.70;;;;;;5092878;28;20040;-65
2021/03/31 02:00:59;;;;;;;57.15;22.65;;;17.50;33.60;;;;;;5074503;28;20121;-68
2021/03/31 02:03:29;;;;;;;52.65;21.90;;;17.40;33.60;;;;;;5093105;28;20052;-67
2021/03/31 02:05:57;;;;;;;51.63;21.80;;;17.30;33.80;;;;;;5074821;28;20052;-66
2021/03/31 02:08:25;;;;;;;46.40;21.52;;;17.30;34.20;;;;;;5092776;28;20063;-67
2021/03/31 02:10:52;;;;;;;46.10;21.52;;;;;;;;;;5090095;28;20127;-66
2021/03/31 02:13:20;;;;;;;50.33;21.88;;;17.30;34.00;;;;;;5079673;28;20040;-67
2021/03/31 02:15:50;;;;;;;56.55;24.42;;;17.30;34.10;;;;;;5078969;28;20060;-68
2021/03/31 02:18:18;;;;;;;45.95;21.42;;;17.30;34.40;;;;;;5077578;28;20075;-66
2021/03/31 02:20:47;;;;;;;49.95;20.88;;;17.20;34.40;;;;;;5092444;28;20048;-66
2021/03/31 02:23:14;;;;;;;51.22;21.58;;;17.10;34.20;;;;;;5074192;28;20040;-65
2021/03/31 02:25:42;;;;;;;48.42;21.92;;;;;;;;;;5092124;28;20048;-66
2021/03/31 02:28:09;;;;;;;49.05;20.10;;;17.10;34.50;;;;;;5092183;28;20093;-66
2021/03/31 02:30:36;;;;;;;48.83;21.52;;;17.00;34.80;;;;;;5074619;28;20047;-65
2021/03/31 02:33:07;;;;;;;46.50;20.10;;;16.90;34.60;;;;;;5092176;28;20040;-67
2021/03/31 02:35:34;;;;;;;49.13;21.67;;;16.80;34.30;;;;;;5092392;28;20036;-66
2021/03/31 02:38:06;;;;;;;46.53;20.63;;;16.80;33.80;;;;;;5092220;28;20060;-65
2021/03/31 02:40:34;;;;;;;49.28;21.27;;;16.70;34.60;;;;;;5091662;28;20072;-66
2021/03/31 02:43:03;;;;;;;55.83;21.08;;;16.70;34.50;;;;;;5073687;28;20043;-66
2021/03/31 02:45:30;;;;;;;54.42;21.42;;;16.80;34.40;;;;;;5074148;28;20043;-65
2021/03/31 02:48:00;;;;;;;45.58;20.83;;;16.90;34.40;;;;;;5092183;28;20059;-65
2021/03/31 02:50:30;;;;;;;51.03;21.10;;;17.00;34.00;;;;;;5091991;28;20048;-64
2021/03/31 02:52:58;;;;;;;44.25;19.33;;;17.00;33.90;;;;;;5091648;28;20109;-66
2021/03/31 02:55:26;;;;;;;44.63;19.88;;;17.00;33.90;;;;;;5091530;28;20085;-66
2021/03/31 02:57:54;;;;;;;48.85;20.90;;;;;;;;;;5064316;28;20036;-64
2021/03/31 03:00:22;;;;;;;44.72;18.83;;;16.80;33.50;;;;;;5092068;28;20044;-65
2021/03/31 03:02:50;;;;;;;41.90;17.63;;;16.80;33.40;;;;;;5091912;28;20530;-65
2021/03/31 03:05:19;;;;;;;38.35;17.63;;;16.70;33.30;;;;;;5091748;28;20058;-66
2021/03/31 03:07:47;;;;;;;41.50;17.15;;;16.70;33.30;;;;;;5091049;28;20043;-66
2021/03/31 03:10:14;;;;;;;44.67;19.42;;;16.80;33.10;;;;;;5073702;28;20402;-65
2021/03/31 03:12:47;;;;;;;39.13;18.80;;;16.90;33.20;;;;;;5091263;28;20044;-68
2021/03/31 03:15:17;;;;;;;43.50;17.92;;;16.90;33.30;;;;;;5074914;28;20063;-65
2021/03/31 03:17:44;;;;;;;38.20;17.52;;;;;;;;;;5092340;28;20036;-66
2021/03/31 03:20:12;;;;;;;43.33;18.25;;;16.90;33.30;;;;;;5092190;28;20559;-64
2021/03/31 03:22:42;;;;;;;44.17;17.85;;;16.90;33.50;;;;;;5090707;28;20040;-66
2021/03/31 03:25:15;;;;;;;43.53;18.70;;;16.80;33.20;;;;;;5092212;28;20040;-65
2021/03/31 03:27:43;;;;;;;42.30;18.58;;;16.90;33.30;;;;;;5092035;28;20056;-66
2021/03/31 03:30:12;;;;;;;42.28;19.17;;;17.00;33.20;;;;;;5091573;28;20585;-65
2021/03/31 03:32:41;;;;;;;47.42;17.92;;;16.90;33.30;;;;;;5091708;28;20540;-65
2021/03/31 03:35:11;;;;;;;43.25;19.17;;;16.80;33.50;;;;;;5091236;28;20040;-66
2021/03/31 03:37:39;;;;;;;38.15;18.83;;;16.80;33.60;;;;;;5072741;28;20060;-66
2021/03/31 03:40:06;;;;;;;44.20;18.13;;;16.70;33.40;;;;;;5091357;28;20051;-65
2021/03/31 03:42:33;;;;;;;40.00;17.45;;;16.70;33.70;;;;;;5091392;28;20135;-66
2021/03/31 03:45:04;;;;;;;43.47;18.27;;;16.80;33.70;;;;;;5091189;28;20078;-66
2021/03/31 03:47:31;;;;;;;37.58;17.77;;;16.70;33.80;;;;;;5073325;28;20036;-68
2021/03/31 03:49:59;;;;;;;38.13;18.17;;;16.70;33.90;;;;;;5091498;28;20048;-68
2021/03/31 03:52:27;;;;;;;43.83;18.05;;;16.70;34.00;;;;;;5090500;28;20086;-66
2021/03/31 03:54:55;;;;;;;40.42;17.67;;;16.60;34.00;;;;;;5091199;28;20463;-66
2021/03/31 03:57:25;;;;;;;42.97;17.67;;;16.60;34.00;;;;;;5090860;28;20399;-66
2021/03/31 03:59:53;;;;;;;35.60;18.05;;;16.70;34.00;;;;;;5056535;28;20044;-65
2021/03/31 04:02:20;;;;;;;43.38;19.02;;;;;;;;;;5090679;28;20041;-67
2021/03/31 04:04:47;;;;;;;42.85;17.48;;;16.20;33.80;;;;;;5090944;28;20039;-65
2021/03/31 04:07:16;;;;;;;48.35;16.90;;;16.60;34.30;;;;;;5090576;28;20094;-65
2021/03/31 04:09:45;;;;;;;;;;;17.90;35.60;;;;;;5091383;28;20127;-65
2021/03/31 04:12:12;;;;;;;37.92;15.98;;;16.40;34.60;;;;;;5090897;28;19924;-65
2021/03/31 04:14:41;;;;;;;39.80;17.17;;;16.40;34.70;;;;;;5090742;28;20048;-66
2021/03/31 04:17:11;;;;;;;42.13;17.13;;;16.20;34.60;;;;;;5091213;28;20047;-65
2021/03/31 04:19:39;;;;;;;38.33;17.13;;;16.20;34.90;;;;;;5090624;28;20051;-65
2021/03/31 04:22:08;;;;;;;32.92;15.50;;;16.10;35.00;;;;;;5072606;28;20071;-66
2021/03/31 04:24:35;;;;;;;34.88;17.15;;;16.20;35.00;;;;;;5090956;28;20051;-66
2021/03/31 04:27:03;;;;;;;39.70;17.02;;;16.30;35.10;;;;;;5090757;28;20127;-66
2021/03/31 04:29:30;;;;;;;36.00;16.23;;;16.20;35.10;;;;;;5073111;28;20093;-66
2021/03/31 04:31:58;;;;;;;43.65;16.95;;;16.20;35.10;;;;;;5090892;28;20424;-64
2021/03/31 04:34:26;;;;;;;34.40;16.83;;;;;;;;;;5091696;28;20102;-65
2021/03/31 04:36:53;;;;;;;39.78;16.58;;;;;;;;;;5093994;28;20055;-68
2021/03/31 04:39:22;;;;;;;37.55;17.13;;;16.30;35.30;;;;;;5076256;28;20414;-66
2021/03/31 04:41:49;;;;;;;38.90;16.85;;;;;;;;;;5094011;28;20036;-65
2021/03/31 04:44:17;;;;;;;39.00;16.83;;;;;;;;;;5094342;28;20035;-67
2021/03/31 04:46:44;;;;;;;39.75;16.25;;;;;;;;;;5094057;28;20409;-65
2021/03/31 04:49:11;;;;;;;32.95;15.88;;;;;;;;;;5093976;28;20051;-66
2021/03/31 04:51:37;;;;;;;34.38;16.38;;;16.10;35.40;;;;;;5094129;28;20048;-68
2021/03/31 04:54:05;;;;;;;35.50;16.90;;;;;;;;;;5093939;28;20046;-66
2021/03/31 04:56:31;;;;;;;39.72;16.85;;;16.10;35.90;;;;;;5094113;28;20505;-66
2021/03/31 04:58:58;;;;;;;;;;;16.10;35.90;;;;;;5094159;28;20549;-67
2021/03/31 05:01:25;;;;;;;45.28;17.27;;;;;;;;;;5093780;28;19920;-67
2021/03/31 05:03:52;;;;;;;39.88;16.40;;;;;;;;;;5093315;28;20113;-66
2021/03/31 05:06:19;;;;;;;33.53;16.35;;;16.00;35.90;;;;;;5093552;28;20112;-66
2021/03/31 05:08:46;;;;;;;36.15;15.75;;;;;;;;;;5093943;28;20052;-67
2021/03/31 05:11:13;;;;;;;40.00;16.67;;;;;;;;;;5093763;28;20044;-65
2021/03/31 05:13:41;;;;;;;40.28;16.83;;;;;;;;;;5093377;28;20036;-65
2021/03/31 05:16:09;;;;;;;32.55;15.73;;;;;;;;;;5094036;28;20044;-67
2021/03/31 05:18:36;;;;;;;35.28;15.88;;;;;;;;;;5094357;28;20068;-66
2021/03/31 05:21:04;;;;;;;34.42;16.73;;;15.70;36.60;;;;;;5094483;28;20058;-66
2021/03/31 05:23:31;;;;;;;45.95;15.55;;;;;;;;;;5094371;28;20059;-64
2021/03/31 05:25:58;;;;;;;36.42;15.80;;;15.70;36.90;;;;;;5075571;28;20048;-66
2021/03/31 05:28:25;;;;;;;36.67;15.15;;;;;;;;;;5075075;28;20101;-67
2021/03/31 05:30:52;;;;;;;39.53;15.88;;;;;;;;;;5071225;28;20052;-64
2021/03/31 05:33:19;;;;;;;35.95;15.45;;;;;;;;;;5088086;28;20055;-65
2021/03/31 05:35:46;;;;;;;38.83;16.30;;;;;;;;;;5090629;28;20081;-65
2021/03/31 05:38:13;;;;;;;32.50;15.15;;;15.70;36.90;;;;;;5087368;28;20036;-66
2021/03/31 05:40:42;;;;;;;33.92;14.68;;;15.60;37.00;;;;;;5090083;28;20047;-68
2021/03/31 05:43:09;;;;;;;29.67;15.10;;;;;;;;;;5085634;28;20047;-65
2021/03/31 05:45:39;;;;;;;26.73;15.15;;;;;;;;;;5092293;28;20032;-65
2021/03/31 05:48:06;;;;;;;34.38;14.90;;;;;;;;;;5092598;28;20117;-66
2021/03/31 05:50:33;;;;;;;35.47;14.85;;;;;;;;;;5092985;28;20048;-67
2021/03/31 05:53:01;;;;;;;51.45;15.18;;;;;;;;;;5074928;28;20140;-67
2021/03/31 05:55:28;;;;;;;34.40;14.27;;;;;;;;;;5092377;28;20055;-67
2021/03/31 05:57:55;;;;;;;34.08;15.32;;;;;;;;;;5092156;28;20035;-68
2021/03/31 06:00:22;;;;;;;32.97;15.60;;;15.70;37.40;;;;;;5091848;28;20498;-68
2021/03/31 06:02:50;;;;;;;27.90;14.27;;;15.80;37.20;;;;;;5092434;28;20040;-66
2021/03/31 06:05:17;;;;;;;30.90;14.57;;;15.90;37.10;;;;;;5093257;28;20980;-71
2021/03/31 06:07:47;;;;;;;41.95;15.20;;;16.10;36.90;;;;;;5057693;28;20058;-68
2021/03/31 06:10:25;;;;;;;32.90;15.02;;;16.20;36.80;;;;;;5092561;28;20123;-67
2021/03/31 06:12:54;;;;;;;35.15;15.55;;;;;;;;;;5091661;28;20467;-68
2021/03/31 06:15:31;;;;;;;35.78;15.00;;;;;;;;;;5091466;28;20079;-68
2021/03/31 06:18:00;;;;;;;29.25;15.20;;;16.40;36.40;;;;;;5091568;28;20405;-66
2021/03/31 06:20:53;;;;;;;34.10;14.68;;;16.60;36.00;;;;;;5040012;28;20088;-67
2021/03/31 06:23:37;;;;;;;31.40;15.10;;;;;;;;;;5091497;28;20165;-68
2021/03/31 06:26:34;;;;;;;29.85;14.80;;;16.90;35.40;;;;;;5091658;28;20454;-66
2021/03/31 06:29:06;;;;;;;30.70;14.45;;;17.10;35.10;;;;;;5091771;28;20063;-69
2021/03/31 06:31:38;;;;;;;34.47;15.30;;;17.10;34.90;;;;;;5090986;28;20064;-66
2021/03/31 06:34:14;;;;;;;36.03;15.52;;;17.10;34.90;;;;;;5091711;28;20052;-67
2021/03/31 06:36:48;;;;;;;36.80;15.40;;;17.30;34.80;;;;;;5091344;28;20097;-69
2021/03/31 06:39:31;;;;;;;33.70;15.20;;;17.30;34.90;;;;;;5056652;28;20054;-68
2021/03/31 06:41:59;;;;;;;37.42;15.45;;;;;;;;;;5090991;28;20082;-69
2021/03/31 06:45:25;;;;;;;30.55;15.35;;;17.50;34.90;;;;;;5090535;28;20097;-69
2021/03/31 06:47:54;;;;;;;31.73;14.88;;;17.70;34.40;;;;;;5081038;28;20051;-65
2021/03/31 06:50:20;;;;;;;32.97;15.00;;;17.70;34.30;;;;;;5091436;28;20422;-67
2021/03/31 06:52:51;;;;;;;;;;;17.70;34.20;;;;;;5073547;28;20032;-69
2021/03/31 06:55:18;;;;;;;28.58;14.85;;;18.00;34.60;;;;;;5090983;28;20368;-70
2021/03/31 06:58:01;;;;;;;35.55;15.18;;;18.10;34.00;;;;;;5089879;28;20490;-70
2021/03/31 07:00:37;;;;;;;29.55;13.85;;;18.30;33.50;;;;;;5089934;28;20505;-70
2021/03/31 07:03:07;;;;;;;28.52;13.68;;;18.40;33.90;;;;;;5083840;28;20056;-69
2021/03/31 07:05:37;;;;;;;30.33;15.05;;;18.50;33.30;;;;;;5077960;28;20090;-69
2021/03/31 07:08:06;;;;;;;28.15;13.85;;;18.80;33.10;;;;;;5078276;28;20114;-67
2021/03/31 07:10:54;;;;;;;27.40;14.27;;;19.00;32.40;;;;;;5077452;28;20067;-68
2021/03/31 07:13:29;;;;;;;24.73;13.13;;;19.30;31.80;;;;;;5071770;28;20040;-70
2021/03/31 07:15:57;;;;;;;27.30;13.88;;;19.40;31.40;;;;;;5076898;28;20109;-69
2021/03/31 07:18:27;;;;;;;31.00;14.23;;;19.60;32.00;;;;;;5062702;28;20052;-71
2021/03/31 07:20:53;;;;;;;28.38;13.90;;;19.80;31.60;;;;;;5069144;28;20052;-69
2021/03/31 07:23:21;;;;;;;;;;;19.90;32.50;;;;;;5071874;28;20052;-69
2021/03/31 07:25:49;;;;;;;28.65;13.35;;;20.20;31.00;;;;;;5081284;28;19923;-68
2021/03/31 07:28:20;;;;;;;26.83;14.13;;;20.30;30.40;;;;;;5078053;28;20055;-67
2021/03/31 07:30:49;;;;;;;25.63;13.50;;;20.30;30.10;;;;;;5079911;28;20036;-68
2021/03/31 07:33:19;;;;;;;29.75;13.73;;;20.50;30.00;;;;;;5078843;28;20059;-69
2021/03/31 07:35:46;;;;;;;29.92;14.02;;;20.50;30.00;;;;;;5078915;28;20052;-70
2021/03/31 07:38:16;;;;;;;39.67;13.27;;;20.60;30.40;;;;;;5080259;28;20051;-69
2021/03/31 07:40:44;;;;;;;29.13;13.52;;;20.60;30.00;;;;;;5078440;28;20056;-67
2021/03/31 07:43:20;;;;;;;32.03;13.38;;;20.70;30.00;;;;;;5081035;28;20039;-68
2021/03/31 07:45:59;;;;;;;;;;;20.70;30.70;;;;;;5070825;28;20127;-68
2021/03/31 07:48:27;;;;;;;35.17;13.57;;;21.10;30.10;;;;;;5070215;28;19926;-68
2021/03/31 07:50:54;;;;;;;34.60;14.40;;;;;;;;;;5069722;28;20420;-68
2021/03/31 07:53:23;;;;;;;29.23;14.27;;;21.20;30.20;;;;;;5070003;28;20115;-66
2021/03/31 07:55:55;;;;;;;25.92;13.82;;;21.50;29.40;;;;;;5069802;28;20044;-67
2021/03/31 07:58:28;;;;;;;33.03;12.75;;;21.70;29.50;;;;;;5070154;28;20044;-67
2021/03/31 08:00:58;;;;;;;28.95;13.02;;;21.90;29.70;;;;;;5070044;28;20047;-67
2021/03/31 08:03:52;;;;;;;21.73;13.02;;;22.10;29.70;;;;;;5068757;28;20055;-68
2021/03/31 08:06:22;;;;;;;20.95;12.85;;;22.20;28.80;;;;;;5053339;28;20139;-69
2021/03/31 08:08:50;;;;;;;30.35;13.30;;;22.20;28.80;;;;;;5071521;28;20049;-67
2021/03/31 08:11:53;;;;;;;33.70;14.63;;;22.20;29.50;;;;;;5073884;28;20048;-68
2021/03/31 08:14:30;;;;;;;24.23;13.40;;;22.20;29.30;;;;;;5046872;28;20067;-69
2021/03/31 08:16:59;;;;;;;25.80;13.98;;;22.20;29.50;;;;;;5093639;28;20478;-67
2021/03/31 08:19:31;;;;;;;29.88;13.93;;;22.00;28.90;;;;;;5075312;28;20044;-66
2021/03/31 08:22:20;;;;;;;30.08;13.25;;;22.10;29.50;;;;;;5094235;28;20039;-68
2021/03/31 08:24:52;;;;;;;24.90;14.35;;;22.00;29.70;;;;;;5079148;28;20059;-69
2021/03/31 08:27:20;;;;;;;29.45;14.43;;;21.90;29.70;;;;;;5093250;28;20059;-68
2021/03/31 08:29:53;;;;;;;35.45;14.77;;;21.90;30.00;;;;;;5077999;28;20109;-67
2021/03/31 08:32:22;;;;;;;30.92;15.18;;;21.80;29.80;;;;;;5091084;28;20048;-69
2021/03/31 08:35:05;;;;;;;28.08;13.23;;;;;;;;;;5091625;28;20040;-69
2021/03/31 08:37:32;;;;;;;24.75;13.40;;;21.70;29.80;;;;;;5093726;28;20059;-67
2021/03/31 08:40:04;;;;;;;;;;;21.60;30.30;;;;;;5093558;28;20559;-68
2021/03/31 08:42:31;;;;;;;27.33;13.88;;;21.60;30.60;;;;;;5092811;28;19966;-66
2021/03/31 08:45:02;;;;;;;30.27;13.27;;;21.60;30.60;;;;;;5086786;28;20055;-69
2021/03/31 08:47:32;;;;;;;27.63;14.07;;;21.60;30.20;;;;;;5086818;28;20399;-68
2021/03/31 08:50:07;;;;;;;28.83;13.90;;;21.50;30.90;;;;;;5075271;28;20040;-66
2021/03/31 08:52:36;;;;;;;30.77;14.45;;;21.50;31.10;;;;;;5076224;28;20040;-65
2021/03/31 08:55:11;;;;;;;24.35;13.10;;;21.70;30.70;;;;;;5075088;28;20048;-67
2021/03/31 08:57:38;;;;;;;30.08;14.60;;;21.80;30.80;;;;;;5076024;28;20040;-67
2021/03/31 09:00:08;;;;;;;25.90;14.00;;;21.90;30.80;;;;;;5074713;28;20149;-67
2021/03/31 09:02:41;;;;;;;29.55;14.52;;;21.90;30.30;;;;;;5076118;28;20119;-67
2021/03/31 09:05:09;;;;;;;25.77;13.40;;;22.00;30.50;;;;;;5069469;28;20474;-67
2021/03/31 09:07:37;;;;;;;28.20;13.82;;;22.00;30.10;;;;;;5076267;28;20036;-67
2021/03/31 09:10:11;;;;;;;27.73;14.52;;;22.10;30.10;;;;;;5074206;28;20045;-68
2021/03/31 09:12:39;;;;;;;32.08;13.38;;;22.30;30.70;;;;;;5076053;28;20044;-66
2021/03/31 09:15:06;;;;;;;28.83;13.95;;;22.40;29.70;;;;;;5078841;28;20064;-65
2021/03/31 09:17:34;;;;;;;24.70;13.68;;;22.20;29.50;;;;;;5073041;28;20493;-67
2021/03/31 09:20:05;;;;;;;27.98;13.70;;;22.60;29.80;;;;;;5087243;28;20406;-67
2021/03/31 09:22:34;;;;;;;27.20;14.48;;;22.70;29.90;;;;;;5091210;28;20100;-67
2021/03/31 09:25:08;;;;;;;24.85;12.40;;;23.00;30.40;;;;;;5088240;28;20585;-69
2021/03/31 09:27:46;;;;;;;23.33;12.55;;;22.90;29.10;;;;;;5090259;28;20044;-67
2021/03/31 09:30:33;;;;;;;26.42;13.50;;;23.10;29.20;;;;;;5061678;28;20490;-66
2021/03/31 09:33:06;;;;;;;31.35;13.32;;;;;;;;;;5082167;28;20067;-66
2021/03/31 09:35:34;;;;;;;24.27;12.38;;;23.00;29.90;;;;;;5078977;28;20070;-66
2021/03/31 09:38:04;;;;;;;25.80;13.05;;;23.20;29.50;;;;;;5089580;28;20068;-68
2021/03/31 09:40:37;;;;;;;26.95;13.55;;;23.50;29.20;;;;;;5077454;28;20043;-67
2021/03/31 09:43:24;;;;;;;22.27;12.93;;;23.40;29.50;;;;;;5088194;28;20056;-65
2021/03/31 09:45:53;;;;;;;23.25;13.05;;;23.60;28.50;;;;;;5072664;28;20032;-66
2021/03/31 09:48:20;;;;;;;28.95;13.48;;;23.70;28.80;;;;;;5072504;28;20052;-67
2021/03/31 09:50:47;;;;;;;24.42;14.15;;;23.70;28.70;;;;;;5054266;28;20469;-66
2021/03/31 09:53:14;;;;;;;29.27;14.80;;;23.70;28.90;;;;;;5052940;28;20460;-67
2021/03/31 09:55:41;;;;;;;23.92;13.68;;;23.90;28.70;;;;;;5070868;28;20131;-65
2021/03/31 09:58:08;;;;;;;32.63;14.32;;;24.00;28.70;;;;;;5071948;28;20040;-66
2021/03/31 10:00:38;;;;;;;37.75;14.75;;;22.60;27.90;;;;;;5053790;28;20059;-66
2021/03/31 10:03:06;;;;;;;29.85;15.27;;;;;;;;;;5036809;28;20040;-67
2021/03/31 10:05:33;;;;;;;32.83;15.25;;;24.10;28.20;;;;;;5070722;28;20045;-68
2021/03/31 10:08:09;;;;;;;34.53;15.77;;;24.40;27.90;;;;;;5070956;28;20045;-67
2021/03/31 10:10:50;;;;;;;32.97;17.67;;;24.60;28.00;;;;;;5072045;28;20041;-67
2021/03/31 10:13:19;;;;;;;31.70;15.40;;;24.60;28.00;;;;;;5071501;28;20067;-66
2021/03/31 10:15:56;;;;;;;27.73;14.77;;;24.70;27.20;;;;;;5063613;28;20088;-66
2021/03/31 10:18:25;;;;;;;29.98;15.10;;;24.80;27.30;;;;;;5071890;28;20083;-67
2021/03/31 10:20:52;;;;;;;36.35;15.25;;;24.80;27.70;;;;;;5071667;28;20131;-66
2021/03/31 10:23:23;;;;;;;27.08;15.40;;;24.90;27.30;;;;;;5086326;28;20166;-66
2021/03/31 10:26:20;;;;;;;28.65;16.08;;;25.10;27.20;;;;;;5070063;28;20047;-65
2021/03/31 10:28:55;;;;;;;28.65;15.73;;;25.10;26.60;;;;;;5049051;28;20048;-67
2021/03/31 10:31:44;;;;;;;27.60;15.65;;;25.80;26.30;;;;;;5070284;28;20479;-64
2021/03/31 10:34:14;;;;;;;26.27;15.10;;;26.20;26.40;;;;;;5064182;28;20044;-65
2021/03/31 10:37:03;;;;;;;26.92;14.32;;;26.20;26.70;;;;;;5071234;28;20109;-67
2021/03/31 10:48:11;;;;;;;29.70;13.98;;;28.30;23.90;;;;;;4987732;28;20046;-66
2021/03/31 10:53:14;;;;;;;;;;;29.20;23.70;;;;;;5009040;28;20400;-66
2021/03/31 10:55:43;;;;;;;29.25;15.25;;;29.70;24.20;;;;;;5008096;28;19925;-65
2021/03/31 10:58:11;;;;;;;26.48;13.88;;;30.10;23.30;;;;;;5007717;28;20053;-66
2021/03/31 11:00:38;;;;;;;28.90;14.32;;;30.10;22.50;;;;;;4994249;28;20437;-64
2021/03/31 11:03:19;;;;;;;29.85;15.05;;;30.60;23.70;;;;;;5006701;28;20049;-64
2021/03/31 11:05:52;;;;;;;30.02;14.75;;;30.90;23.10;;;;;;5008052;28;20046;-64
2021/03/31 11:08:19;;;;;;;27.92;15.32;;;31.30;23.50;;;;;;5008261;28;20046;-66
2021/03/31 11:10:46;;;;;;;27.83;14.48;;;31.60;23.50;;;;;;5008819;28;20520;-65
2021/03/31 11:13:13;;;;;;;23.88;14.20;;;31.50;22.70;;;;;;5008036;28;20057;-64
2021/03/31 11:15:40;;;;;;;24.73;14.75;;;;;;;;;;5008364;28;20060;-66
2021/03/31 11:18:14;;;;;;;25.58;14.90;;;31.80;22.30;;;;;;4984831;28;20512;-65
2021/03/31 11:20:52;;;;;;;29.65;15.23;;;31.90;22.70;;;;;;4995987;28;20050;-66
2021/03/31 11:26:04;;;;;;;28.05;14.88;;;32.30;22.70;;;;;;5066771;28;20044;-66
2021/03/31 11:28:30;;;;;;;25.23;12.68;;;32.10;20.80;;;;;;5065170;28;20044;-65
2021/03/31 11:30:57;;;;;;;24.08;13.15;;;31.70;20.70;;;;;;5058394;28;20466;-65
2021/03/31 11:33:25;;;;;;;26.23;13.68;;;31.60;21.40;;;;;;5061985;28;20045;-62
2021/03/31 11:35:53;;;;;;;32.63;15.10;;;31.50;21.20;;;;;;5068426;28;20041;-65
2021/03/31 11:38:19;;;;;;;26.20;14.90;;;31.80;21.60;;;;;;5067239;28;20111;-65
2021/03/31 11:40:46;;;;;;;27.30;15.85;;;32.10;22.30;;;;;;5061733;28;20044;-64
2021/03/31 11:43:15;;;;;;;24.83;14.38;;;32.00;21.60;;;;;;5066470;28;20416;-63
2021/03/31 11:45:41;;;;;;;32.60;15.43;;;32.30;21.10;;;;;;5074127;28;20387;-66
2021/03/31 11:48:08;;;;;;;27.83;15.85;;;32.30;21.60;;;;;;5089526;28;20052;-65
2021/03/31 11:50:35;;;;;;;28.92;15.00;;;32.10;21.70;;;;;;5073653;28;20048;-67
2021/03/31 11:53:02;;;;;;;35.28;15.88;;;32.00;21.80;;;;;;5073007;28;20056;-66
2021/03/31 11:55:30;;;;;;;28.67;15.27;;;31.80;22.00;;;;;;5073930;28;20040;-64
2021/03/31 11:57:56;;;;;;;30.17;15.00;;;31.50;22.20;;;;;;5072806;28;20054;-63
2021/03/31 12:00:23;;;;;;;27.25;13.82;;;31.50;21.80;;;;;;5074172;28;20040;-66
2021/03/31 12:02:50;;;;;;;33.22;14.50;;;31.70;22.00;;;;;;5073860;28;20029;-66
2021/03/31 12:05:17;;;;;;;23.50;12.27;;;31.60;21.20;;;;;;5055717;28;20040;-64
2021/03/31 12:07:44;;;;;;;22.45;12.75;;;31.70;20.80;;;;;;5070411;28;20094;-66
2021/03/31 12:10:12;;;;;;;24.48;12.80;;;31.80;20.70;;;;;;5045407;28;20053;-65
2021/03/31 12:12:40;;;;;;;26.85;13.40;;;32.00;20.80;;;;;;5073857;28;20048;-63
2021/03/31 12:15:14;;;;;;;26.75;13.18;;;32.10;20.50;;;;;;5080285;28;20048;-64
2021/03/31 12:17:42;;;;;;;28.50;12.45;;;31.90;21.90;;;;;;5093961;28;20040;-66
2021/03/31 12:20:15;;;;;;;24.20;12.43;;;32.00;21.60;;;;;;5093642;28;20124;-67
2021/03/31 12:22:43;;;;;;;29.10;13.40;;;31.90;21.30;;;;;;5093678;28;20161;-66
2021/03/31 12:25:11;;;;;;;23.27;12.68;;;31.90;21.90;;;;;;5092449;28;20462;-63
2021/03/31 12:27:39;;;;;;;25.35;13.30;;;32.00;21.50;;;;;;5093715;28;20063;-65
2021/03/31 12:30:11;;;;;;;29.55;12.98;;;31.90;21.20;;;;;;5093649;28;20081;-65
2021/03/31 12:32:38;;;;;;;22.20;12.68;;;32.00;21.20;;;;;;5093632;28;20055;-64
2021/03/31 12:35:06;;;;;;;25.98;13.18;;;32.00;21.50;;;;;;5074712;28;20044;-66
2021/03/31 12:37:33;;;;;;;27.92;13.18;;;31.90;21.50;;;;;;5075214;28;20052;-64
2021/03/31 12:40:01;;;;;;;22.85;12.52;;;31.70;22.00;;;;;;5092907;28;20052;-65
2021/03/31 12:42:27;;;;;;;27.00;12.48;;;31.70;20.70;;;;;;5093382;28;20048;-66
2021/03/31 12:44:54;;;;;;;28.92;14.05;;;31.80;21.20;;;;;;5093032;28;20433;-64
2021/03/31 12:47:21;;;;;;;37.67;15.35;;;31.70;20.90;;;;;;5093536;28;20389;-65
2021/03/31 12:49:50;;;;;;;24.77;13.98;;;31.80;21.70;;;;;;5075208;28;20052;-64
2021/03/31 12:52:55;;;;;;;28.98;14.40;;;31.80;21.90;;;;;;5092979;28;20047;-65
2021/03/31 12:55:14;;;;;;;24.90;13.50;;;31.60;21.30;;;;;;5070848;28;20063;-65
2021/03/31 12:57:42;;;;;;;28.33;15.10;;;31.90;21.50;;;;;;5074654;28;20502;-63
2021/03/31 13:00:09;;;;;;;30.70;15.13;;;31.70;21.60;;;;;;5092757;28;20043;-66
2021/03/31 13:02:56;;;;;;;29.10;14.85;;;;;;;;;;5092413;28;20047;-65
2021/03/31 13:05:43;;;;;;;29.98;14.75;;;32.30;21.00;;;;;;5074731;28;20521;-64
2021/03/31 13:08:12;;;;;;;24.90;13.80;;;32.30;21.00;;;;;;5092895;28;20044;-66
2021/03/31 13:10:59;;;;;;;30.02;13.98;;;32.50;22.00;;;;;;5092371;28;20048;-65
2021/03/31 13:25:15;;;;;;;32.05;14.50;;;32.40;22.00;;;;;;5074425;28;20131;-64
2021/03/31 13:33:23;;;;;;;25.25;14.27;;;32.40;21.20;;;;;;5073787;28;20135;-63
2021/03/31 13:41:15;;;;;;;30.83;14.25;;;32.50;21.00;;;;;;5049574;28;20056;-67